sensor_id;sensor_type;location;lat;lon;timestamp;pressure;altitude;pressure_sealevel;temperature;humidity
60228;BME280;46091;46.512;6.626;2023-05-29T00:00:44;96623.84;;;22.91;37.39
60228;BME280;46091;46.512;6.626;2023-05-29T00:02:48;96624.94;;;22.85;37.47
60228;BME280;46091;46.512;6.626;2023-05-29T00:04:52;96623.03;;;22.86;37.11
60228;BME280;46091;46.512;6.626;2023-05-29T00:06:55;96619.81;;;22.89;37.03
60228;BME280;46091;46.512;6.626;2023-05-29T00:08:58;96617.09;;;22.94;37.22
60228;BME280;46091;46.512;6.626;2023-05-29T00:11:03;96628.91;;;22.98;37.19
60228;BME280;46091;46.512;6.626;2023-05-29T00:13:06;96628.41;;;23.01;36.87
60228;BME280;46091;46.512;6.626;2023-05-29T00:15:09;96624.06;;;23.05;37.28
60228;BME280;46091;46.512;6.626;2023-05-29T00:17:14;96620.28;;;23.06;36.76
60228;BME280;46091;46.512;6.626;2023-05-29T00:19:17;96633.47;;;23.08;36.79
60228;BME280;46091;46.512;6.626;2023-05-29T00:21:20;96626.47;;;23.07;37.02
60228;BME280;46091;46.512;6.626;2023-05-29T00:23:23;96623.25;;;23.05;37.30
60228;BME280;46091;46.512;6.626;2023-05-29T00:25:26;96625.41;;;23.03;37.15
60228;BME280;46091;46.512;6.626;2023-05-29T00:27:31;96623.00;;;23.01;37.09
60228;BME280;46091;46.512;6.626;2023-05-29T00:29:35;96626.78;;;22.95;37.36
60228;BME280;46091;46.512;6.626;2023-05-29T00:31:39;96616.56;;;22.92;37.59
60228;BME280;46091;46.512;6.626;2023-05-29T00:33:42;96615.50;;;22.88;37.38
60228;BME280;46091;46.512;6.626;2023-05-29T00:35:44;96617.13;;;22.84;37.27
60228;BME280;46091;46.512;6.626;2023-05-29T00:37:47;96616.31;;;22.83;37.31
60228;BME280;46091;46.512;6.626;2023-05-29T00:39:50;96612.28;;;22.81;37.75
60228;BME280;46091;46.512;6.626;2023-05-29T00:41:53;96611.47;;;22.80;37.49
60228;BME280;46091;46.512;6.626;2023-05-29T00:43:57;96613.34;;;22.80;37.39
60228;BME280;46091;46.512;6.626;2023-05-29T00:46:00;96616.84;;;22.80;37.67
60228;BME280;46091;46.512;6.626;2023-05-29T00:48:04;96614.44;;;22.79;37.80
60228;BME280;46091;46.512;6.626;2023-05-29T00:50:09;96611.22;;;22.77;38.03
60228;BME280;46091;46.512;6.626;2023-05-29T00:52:15;96622.00;;;22.77;37.96
60228;BME280;46091;46.512;6.626;2023-05-29T00:54:21;96616.59;;;22.77;37.52
60228;BME280;46091;46.512;6.626;2023-05-29T00:56:26;96610.66;;;22.75;37.57
60228;BME280;46091;46.512;6.626;2023-05-29T00:58:29;96619.53;;;22.75;37.89
60228;BME280;46091;46.512;6.626;2023-05-29T01:00:34;96617.66;;;22.76;38.04
60228;BME280;46091;46.512;6.626;2023-05-29T01:02:40;96627.38;;;22.77;37.66
60228;BME280;46091;46.512;6.626;2023-05-29T01:04:46;96623.03;;;22.76;37.82
60228;BME280;46091;46.512;6.626;2023-05-29T01:06:50;96625.75;;;22.76;37.86
60228;BME280;46091;46.512;6.626;2023-05-29T01:08:53;96620.34;;;22.76;37.83
60228;BME280;46091;46.512;6.626;2023-05-29T01:11:01;96626.81;;;22.75;37.68
60228;BME280;46091;46.512;6.626;2023-05-29T01:13:10;96617.94;;;22.74;38.12
60228;BME280;46091;46.512;6.626;2023-05-29T01:15:20;96624.13;;;22.75;37.89
60228;BME280;46091;46.512;6.626;2023-05-29T01:17:29;96627.09;;;22.73;38.02
60228;BME280;46091;46.512;6.626;2023-05-29T01:19:58;96628.75;;;22.69;38.08
60228;BME280;46091;46.512;6.626;2023-05-29T01:22:11;96631.19;;;22.65;38.32
60228;BME280;46091;46.512;6.626;2023-05-29T01:24:21;96626.31;;;22.62;38.27
60228;BME280;46091;46.512;6.626;2023-05-29T01:26:52;96633.88;;;22.60;38.65
60228;BME280;46091;46.512;6.626;2023-05-29T01:29:00;96630.09;;;22.61;38.42
60228;BME280;46091;46.512;6.626;2023-05-29T01:31:05;96632.28;;;22.59;38.24
60228;BME280;46091;46.512;6.626;2023-05-29T01:33:09;96634.44;;;22.57;38.86
60228;BME280;46091;46.512;6.626;2023-05-29T01:35:12;96632.03;;;22.56;38.92
60228;BME280;46091;46.512;6.626;2023-05-29T01:37:15;96636.03;;;22.53;38.58
60228;BME280;46091;46.512;6.626;2023-05-29T01:39:19;96635.50;;;22.51;39.04
60228;BME280;46091;46.512;6.626;2023-05-29T01:41:23;96639.28;;;22.50;38.70
60228;BME280;46091;46.512;6.626;2023-05-29T01:43:28;96632.28;;;22.49;39.12
60228;BME280;46091;46.512;6.626;2023-05-29T01:45:32;96637.16;;;22.47;38.99
60228;BME280;46091;46.512;6.626;2023-05-29T01:47:35;96640.13;;;22.46;39.15
60228;BME280;46091;46.512;6.626;2023-05-29T01:49:43;96632.59;;;22.43;39.22
60228;BME280;46091;46.512;6.626;2023-05-29T01:51:46;96635.81;;;22.40;38.86
60228;BME280;46091;46.512;6.626;2023-05-29T01:53:49;96635.28;;;22.37;39.03
60228;BME280;46091;46.512;6.626;2023-05-29T01:55:52;96636.63;;;22.35;39.46
60228;BME280;46091;46.512;6.626;2023-05-29T01:57:56;96636.63;;;22.35;39.49
60228;BME280;46091;46.512;6.626;2023-05-29T02:00:01;96637.19;;;22.32;39.18
60228;BME280;46091;46.512;6.626;2023-05-29T02:02:10;96631.81;;;22.32;39.10
60228;BME280;46091;46.512;6.626;2023-05-29T02:04:13;96625.03;;;22.29;39.63
60228;BME280;46091;46.512;6.626;2023-05-29T02:06:17;96633.13;;;22.29;39.24
60228;BME280;46091;46.512;6.626;2023-05-29T02:08:20;96626.13;;;22.28;39.47
60228;BME280;46091;46.512;6.626;2023-05-29T02:10:23;96619.94;;;22.28;39.40
60228;BME280;46091;46.512;6.626;2023-05-29T02:12:26;96629.63;;;22.29;39.43
60228;BME280;46091;46.512;6.626;2023-05-29T02:14:29;96632.31;;;22.29;39.54
60228;BME280;46091;46.512;6.626;2023-05-29T02:16:35;96629.34;;;22.30;39.62
60228;BME280;46091;46.512;6.626;2023-05-29T02:18:38;96622.34;;;22.29;39.69
60228;BME280;46091;46.512;6.626;2023-05-29T02:20:42;96618.31;;;22.27;39.86
60228;BME280;46091;46.512;6.626;2023-05-29T02:22:45;96625.88;;;22.25;39.48
60228;BME280;46091;46.512;6.626;2023-05-29T02:24:48;96625.34;;;22.23;39.59
60228;BME280;46091;46.512;6.626;2023-05-29T02:26:51;96619.97;;;22.23;39.94
60228;BME280;46091;46.512;6.626;2023-05-29T02:28:54;96621.03;;;22.22;39.63
60228;BME280;46091;46.512;6.626;2023-05-29T02:30:57;96625.63;;;22.21;39.77
60228;BME280;46091;46.512;6.626;2023-05-29T02:33:01;96616.72;;;22.21;39.81
60228;BME280;46091;46.512;6.626;2023-05-29T02:35:04;96618.88;;;22.19;39.81
60228;BME280;46091;46.512;6.626;2023-05-29T02:37:08;96614.56;;;22.18;39.89
60228;BME280;46091;46.512;6.626;2023-05-29T02:39:11;96615.66;;;22.17;39.98
60228;BME280;46091;46.512;6.626;2023-05-29T02:41:14;96622.91;;;22.16;39.84
60228;BME280;46091;46.512;6.626;2023-05-29T02:43:17;96626.69;;;22.15;39.98
60228;BME280;46091;46.512;6.626;2023-05-29T02:45:20;96619.97;;;22.13;40.00
60228;BME280;46091;46.512;6.626;2023-05-29T02:47:23;96621.84;;;22.12;40.08
60228;BME280;46091;46.512;6.626;2023-05-29T02:49:27;96620.50;;;22.10;40.38
60228;BME280;46091;46.512;6.626;2023-05-29T02:51:30;96621.84;;;22.07;40.41
60228;BME280;46091;46.512;6.626;2023-05-29T02:53:34;96615.66;;;22.06;40.38
60228;BME280;46091;46.512;6.626;2023-05-29T02:55:36;96619.94;;;22.07;40.53
60228;BME280;46091;46.512;6.626;2023-05-29T02:57:39;96622.91;;;22.06;40.13
60228;BME280;46091;46.512;6.626;2023-05-29T02:59:42;96621.03;;;22.06;40.53
60228;BME280;46091;46.512;6.626;2023-05-29T03:01:45;96612.41;;;22.04;40.50
60228;BME280;46091;46.512;6.626;2023-05-29T03:03:50;96612.66;;;22.03;40.23
60228;BME280;46091;46.512;6.626;2023-05-29T03:05:55;96617.78;;;22.04;40.22
60228;BME280;46091;46.512;6.626;2023-05-29T03:07:58;96621.28;;;22.05;40.19
60228;BME280;46091;46.512;6.626;2023-05-29T03:10:00;96612.16;;;22.06;40.46
60228;BME280;46091;46.512;6.626;2023-05-29T03:12:05;96609.16;;;22.02;40.22
60228;BME280;46091;46.512;6.626;2023-05-29T03:14:09;96612.69;;;21.98;40.46
60228;BME280;46091;46.512;6.626;2023-05-29T03:16:12;96615.63;;;21.96;40.59
60228;BME280;46091;46.512;6.626;2023-05-29T03:18:14;96612.41;;;21.94;40.21
60228;BME280;46091;46.512;6.626;2023-05-29T03:20:17;96617.78;;;21.89;40.57
60228;BME280;46091;46.512;6.626;2023-05-29T03:22:22;96609.72;;;21.89;40.49
60228;BME280;46091;46.512;6.626;2023-05-29T03:24:24;96613.47;;;21.93;40.18
60228;BME280;46091;46.512;6.626;2023-05-29T03:26:29;96609.44;;;21.96;40.67
60228;BME280;46091;46.512;6.626;2023-05-29T03:28:32;96604.63;;;21.98;40.36
60228;BME280;46091;46.512;6.626;2023-05-29T03:30:35;96610.50;;;21.95;40.40
60228;BME280;46091;46.512;6.626;2023-05-29T03:32:37;96614.00;;;21.85;40.18
60228;BME280;46091;46.512;6.626;2023-05-29T03:34:40;96608.09;;;21.83;40.40
60228;BME280;46091;46.512;6.626;2023-05-29T03:36:43;96612.41;;;21.89;40.26
60228;BME280;46091;46.512;6.626;2023-05-29T03:38:49;96613.22;;;21.90;40.13
60228;BME280;46091;46.512;6.626;2023-05-29T03:40:52;96616.19;;;21.88;40.21
60228;BME280;46091;46.512;6.626;2023-05-29T03:42:55;96623.19;;;21.89;40.46
60228;BME280;46091;46.512;6.626;2023-05-29T03:44:58;96623.19;;;21.89;40.63
60228;BME280;46091;46.512;6.626;2023-05-29T03:47:00;96615.38;;;21.88;40.55
60228;BME280;46091;46.512;6.626;2023-05-29T03:49:04;96614.56;;;21.87;40.33
60228;BME280;46091;46.512;6.626;2023-05-29T03:51:08;96622.38;;;21.89;40.66
60228;BME280;46091;46.512;6.626;2023-05-29T03:53:12;96617.53;;;21.91;40.18
60228;BME280;46091;46.512;6.626;2023-05-29T03:55:16;96622.91;;;21.91;40.21
60228;BME280;46091;46.512;6.626;2023-05-29T03:57:19;96626.66;;;21.90;40.27
60228;BME280;46091;46.512;6.626;2023-05-29T03:59:22;96623.19;;;21.89;40.26
60228;BME280;46091;46.512;6.626;2023-05-29T04:01:25;96629.09;;;21.86;40.38
60228;BME280;46091;46.512;6.626;2023-05-29T04:03:29;96627.22;;;21.87;40.37
60228;BME280;46091;46.512;6.626;2023-05-29T04:05:32;96629.34;;;21.85;40.11
60228;BME280;46091;46.512;6.626;2023-05-29T04:07:36;96619.94;;;21.82;40.25
60228;BME280;46091;46.512;6.626;2023-05-29T04:09:40;96625.59;;;21.80;40.21
60228;BME280;46091;46.512;6.626;2023-05-29T04:11:44;96630.44;;;21.78;40.27
60228;BME280;46091;46.512;6.626;2023-05-29T04:13:47;96626.13;;;21.77;40.45
60228;BME280;46091;46.512;6.626;2023-05-29T04:15:53;96635.28;;;21.76;40.59
60228;BME280;46091;46.512;6.626;2023-05-29T04:17:57;96640.09;;;21.74;40.59
60228;BME280;46091;46.512;6.626;2023-05-29T04:20:00;96641.19;;;21.73;40.32
60228;BME280;46091;46.512;6.626;2023-05-29T04:22:09;96647.91;;;21.71;40.40
60228;BME280;46091;46.512;6.626;2023-05-29T04:24:13;96644.69;;;21.69;40.49
60228;BME280;46091;46.512;6.626;2023-05-29T04:26:16;96646.84;;;21.67;40.95
60228;BME280;46091;46.512;6.626;2023-05-29T04:28:20;96641.47;;;21.67;40.63
60228;BME280;46091;46.512;6.626;2023-05-29T04:30:23;96652.50;;;21.65;40.71
60228;BME280;46091;46.512;6.626;2023-05-29T04:32:26;96652.22;;;21.67;40.94
60228;BME280;46091;46.512;6.626;2023-05-29T04:34:29;96660.28;;;21.67;40.79
60228;BME280;46091;46.512;6.626;2023-05-29T04:36:32;96658.69;;;21.66;40.68
60228;BME280;46091;46.512;6.626;2023-05-29T04:38:35;96651.69;;;21.65;40.63
60228;BME280;46091;46.512;6.626;2023-05-29T04:40:38;96657.06;;;21.65;40.70
60228;BME280;46091;46.512;6.626;2023-05-29T04:42:42;96661.88;;;21.63;40.84
60228;BME280;46091;46.512;6.626;2023-05-29T04:44:47;96664.56;;;21.63;40.89
60228;BME280;46091;46.512;6.626;2023-05-29T04:46:50;96669.72;;;21.64;40.72
60228;BME280;46091;46.512;6.626;2023-05-29T04:48:54;96670.50;;;21.65;40.99
60228;BME280;46091;46.512;6.626;2023-05-29T04:50:57;96675.88;;;21.65;40.88
60228;BME280;46091;46.512;6.626;2023-05-29T04:53:01;96672.13;;;21.66;40.85
60228;BME280;46091;46.512;6.626;2023-05-29T04:55:04;96674.53;;;21.67;41.31
60228;BME280;46091;46.512;6.626;2023-05-29T04:57:07;96683.69;;;21.66;41.20
60228;BME280;46091;46.512;6.626;2023-05-29T04:59:12;96678.03;;;21.68;41.24
60228;BME280;46091;46.512;6.626;2023-05-29T05:01:16;96681.00;;;21.71;41.33
60228;BME280;46091;46.512;6.626;2023-05-29T05:03:19;96680.19;;;21.71;41.05
60228;BME280;46091;46.512;6.626;2023-05-29T05:05:22;96681.81;;;21.72;40.91
60228;BME280;46091;46.512;6.626;2023-05-29T05:07:25;96680.47;;;21.74;41.06
60228;BME280;46091;46.512;6.626;2023-05-29T05:09:28;96689.38;;;21.75;40.85
60228;BME280;46091;46.512;6.626;2023-05-29T05:11:31;96682.09;;;21.75;41.08
60228;BME280;46091;46.512;6.626;2023-05-29T05:13:34;96692.88;;;21.75;41.22
60228;BME280;46091;46.512;6.626;2023-05-29T05:15:37;96689.38;;;21.75;41.06
60228;BME280;46091;46.512;6.626;2023-05-29T05:17:41;96687.47;;;21.75;41.17
60228;BME280;46091;46.512;6.626;2023-05-29T05:19:44;96687.22;;;21.77;41.25
60228;BME280;46091;46.512;6.626;2023-05-29T05:21:47;96684.25;;;21.78;41.19
60228;BME280;46091;46.512;6.626;2023-05-29T05:23:53;96682.91;;;21.81;41.14
60228;BME280;46091;46.512;6.626;2023-05-29T05:25:59;96676.97;;;21.84;41.35
60228;BME280;46091;46.512;6.626;2023-05-29T05:28:02;96686.41;;;21.92;41.18
60228;BME280;46091;46.512;6.626;2023-05-29T05:30:07;96688.03;;;22.03;41.22
60228;BME280;46091;46.512;6.626;2023-05-29T05:32:10;96684.56;;;22.13;41.26
60228;BME280;46091;46.512;6.626;2023-05-29T05:34:14;96685.66;;;22.22;41.00
60228;BME280;46091;46.512;6.626;2023-05-29T05:36:17;96686.72;;;22.31;41.08
60228;BME280;46091;46.512;6.626;2023-05-29T05:38:20;96684.00;;;22.41;40.98
60228;BME280;46091;46.512;6.626;2023-05-29T05:40:23;96684.56;;;22.48;40.98
60228;BME280;46091;46.512;6.626;2023-05-29T05:42:26;96681.31;;;22.56;41.02
60228;BME280;46091;46.512;6.626;2023-05-29T05:44:29;96680.75;;;22.64;40.57
60228;BME280;46091;46.512;6.626;2023-05-29T05:46:32;96678.31;;;22.68;40.80
60228;BME280;46091;46.512;6.626;2023-05-29T05:48:35;96690.97;;;22.73;40.71
60228;BME280;46091;46.512;6.626;2023-05-29T05:50:39;96688.81;;;22.75;41.13
60228;BME280;46091;46.512;6.626;2023-05-29T05:52:42;96689.38;;;22.77;41.04
60228;BME280;46091;46.512;6.626;2023-05-29T05:54:45;96690.69;;;22.79;41.02
60228;BME280;46091;46.512;6.626;2023-05-29T05:56:48;96685.56;;;22.83;40.94
60228;BME280;46091;46.512;6.626;2023-05-29T05:58:51;96688.28;;;22.88;41.12
60228;BME280;46091;46.512;6.626;2023-05-29T06:00:54;96690.72;;;22.89;40.92
60228;BME280;46091;46.512;6.626;2023-05-29T06:03:00;96692.03;;;22.87;40.98
60228;BME280;46091;46.512;6.626;2023-05-29T06:05:06;96686.66;;;22.92;41.02
60228;BME280;46091;46.512;6.626;2023-05-29T06:07:10;96696.34;;;22.93;40.82
60228;BME280;46091;46.512;6.626;2023-05-29T06:09:13;96691.75;;;22.93;41.11
60228;BME280;46091;46.512;6.626;2023-05-29T06:11:16;96694.19;;;22.95;41.09
60228;BME280;46091;46.512;6.626;2023-05-29T06:13:19;96690.41;;;22.96;41.07
60228;BME280;46091;46.512;6.626;2023-05-29T06:15:22;96693.63;;;22.98;40.49
60228;BME280;46091;46.512;6.626;2023-05-29T06:17:25;96689.31;;;23.02;40.95
60228;BME280;46091;46.512;6.626;2023-05-29T06:19:28;96696.28;;;23.08;40.98
60228;BME280;46091;46.512;6.626;2023-05-29T06:21:32;96708.44;;;23.11;40.91
60228;BME280;46091;46.512;6.626;2023-05-29T06:23:36;96693.88;;;23.12;40.54
60228;BME280;46091;46.512;6.626;2023-05-29T06:25:39;96701.94;;;23.17;40.86
60228;BME280;46091;46.512;6.626;2023-05-29T06:27:42;96698.94;;;23.18;40.89
60228;BME280;46091;46.512;6.626;2023-05-29T06:29:45;96705.44;;;23.22;40.69
60228;BME280;46091;46.512;6.626;2023-05-29T06:31:48;96701.09;;;23.27;40.80
60228;BME280;46091;46.512;6.626;2023-05-29T06:33:51;96703.78;;;23.27;40.59
60228;BME280;46091;46.512;6.626;2023-05-29T06:35:55;96710.50;;;23.34;40.34
60228;BME280;46091;46.512;6.626;2023-05-29T06:37:58;96712.88;;;23.41;40.64
60228;BME280;46091;46.512;6.626;2023-05-29T06:40:03;96713.97;;;23.45;40.26
60228;BME280;46091;46.512;6.626;2023-05-29T06:42:07;96708.00;;;23.48;40.36
60228;BME280;46091;46.512;6.626;2023-05-29T06:44:10;96711.47;;;23.53;40.07
60228;BME280;46091;46.512;6.626;2023-05-29T06:46:13;96717.94;;;23.58;39.99
60228;BME280;46091;46.512;6.626;2023-05-29T06:48:16;96713.38;;;23.58;40.48
60228;BME280;46091;46.512;6.626;2023-05-29T06:50:19;96712.81;;;23.61;40.27
60228;BME280;46091;46.512;6.626;2023-05-29T06:52:22;96719.81;;;23.62;40.40
60228;BME280;46091;46.512;6.626;2023-05-29T06:54:25;96720.63;;;23.63;40.34
60228;BME280;46091;46.512;6.626;2023-05-29T06:56:29;96719.81;;;23.62;40.16
60228;BME280;46091;46.512;6.626;2023-05-29T06:58:32;96717.94;;;23.63;40.23
60228;BME280;46091;46.512;6.626;2023-05-29T07:00:36;96713.63;;;23.62;40.38
60228;BME280;46091;46.512;6.626;2023-05-29T07:02:39;96718.78;;;23.58;39.98
60228;BME280;46091;46.512;6.626;2023-05-29T07:04:42;96718.78;;;23.58;39.97
60228;BME280;46091;46.512;6.626;2023-05-29T07:06:45;96714.44;;;23.52;40.08
60228;BME280;46091;46.512;6.626;2023-05-29T07:08:48;96716.34;;;23.51;40.13
60228;BME280;46091;46.512;6.626;2023-05-29T07:10:51;96713.41;;;23.48;40.20
60228;BME280;46091;46.512;6.626;2023-05-29T07:12:56;96715.03;;;23.44;40.06
60228;BME280;46091;46.512;6.626;2023-05-29T07:14:59;96709.66;;;23.39;40.21
60228;BME280;46091;46.512;6.626;2023-05-29T07:17:02;96705.91;;;23.30;40.07
60228;BME280;46091;46.512;6.626;2023-05-29T07:19:05;96711.59;;;23.33;40.40
60228;BME280;46091;46.512;6.626;2023-05-29T07:21:20;96713.47;;;23.28;40.28
60228;BME280;46091;46.512;6.626;2023-05-29T07:23:24;96713.75;;;23.26;40.28
60228;BME280;46091;46.512;6.626;2023-05-29T07:25:29;96712.72;;;23.22;40.03
60228;BME280;46091;46.512;6.626;2023-05-29T07:27:32;96710.81;;;23.17;40.34
60228;BME280;46091;46.512;6.626;2023-05-29T07:29:36;96715.44;;;23.12;40.47
60228;BME280;46091;46.512;6.626;2023-05-29T07:31:39;96718.94;;;23.12;40.12
60228;BME280;46091;46.512;6.626;2023-05-29T07:33:43;96718.38;;;23.10;39.93
60228;BME280;46091;46.512;6.626;2023-05-29T07:35:47;96715.72;;;23.05;40.11
60228;BME280;46091;46.512;6.626;2023-05-29T07:37:50;96721.66;;;23.02;40.50
60228;BME280;46091;46.512;6.626;2023-05-29T07:39:53;96721.94;;;23.01;40.23
60228;BME280;46091;46.512;6.626;2023-05-29T07:41:57;96718.97;;;22.97;40.43
60228;BME280;46091;46.512;6.626;2023-05-29T07:43:59;96718.44;;;23.00;39.94
60228;BME280;46091;46.512;6.626;2023-05-29T07:46:04;96706.84;;;23.00;39.92
60228;BME280;46091;46.512;6.626;2023-05-29T07:48:07;96713.06;;;23.00;40.10
60228;BME280;46091;46.512;6.626;2023-05-29T07:50:10;96711.44;;;22.99;40.42
60228;BME280;46091;46.512;6.626;2023-05-29T07:52:13;96711.16;;;22.95;40.12
60228;BME280;46091;46.512;6.626;2023-05-29T07:54:16;96714.94;;;22.94;39.94
60228;BME280;46091;46.512;6.626;2023-05-29T07:56:22;96715.22;;;22.93;40.13
60228;BME280;46091;46.512;6.626;2023-05-29T07:58:26;96715.50;;;22.91;40.38
60228;BME280;46091;46.512;6.626;2023-05-29T08:00:30;96713.59;;;22.92;40.05
60228;BME280;46091;46.512;6.626;2023-05-29T08:02:35;96711.16;;;22.95;39.91
60228;BME280;46091;46.512;6.626;2023-05-29T08:04:39;96720.56;;;22.98;39.92
60228;BME280;46091;46.512;6.626;2023-05-29T08:06:42;96721.38;;;22.99;40.32
60228;BME280;46091;46.512;6.626;2023-05-29T08:08:45;96712.50;;;22.98;40.12
60228;BME280;46091;46.512;6.626;2023-05-29T08:10:49;96721.13;;;23.00;40.39
60228;BME280;46091;46.512;6.626;2023-05-29T08:12:52;96717.88;;;22.98;40.30
60228;BME280;46091;46.512;6.626;2023-05-29T08:14:54;96723.28;;;22.98;39.99
60228;BME280;46091;46.512;6.626;2023-05-29T08:16:58;96721.38;;;22.99;40.45
60228;BME280;46091;46.512;6.626;2023-05-29T08:19:03;96714.38;;;23.03;40.18
60228;BME280;46091;46.512;6.626;2023-05-29T08:21:06;96711.41;;;23.04;40.27
60228;BME280;46091;46.512;6.626;2023-05-29T08:23:10;96713.81;;;23.06;40.38
60228;BME280;46091;46.512;6.626;2023-05-29T08:25:13;96705.22;;;23.04;40.68
60228;BME280;46091;46.512;6.626;2023-05-29T08:27:16;96716.28;;;23.02;40.38
60228;BME280;46091;46.512;6.626;2023-05-29T08:29:19;96703.88;;;23.01;40.78
60228;BME280;46091;46.512;6.626;2023-05-29T08:31:22;96705.22;;;22.99;40.71
60228;BME280;46091;46.512;6.626;2023-05-29T08:33:27;96699.81;;;22.99;40.63
60228;BME280;46091;46.512;6.626;2023-05-29T08:35:32;96700.38;;;23.01;40.85
60228;BME280;46091;46.512;6.626;2023-05-29T08:37:35;96696.88;;;23.00;40.86
60228;BME280;46091;46.512;6.626;2023-05-29T08:39:38;96696.31;;;22.98;40.56
60228;BME280;46091;46.512;6.626;2023-05-29T08:41:46;96702.50;;;22.99;40.86
60228;BME280;46091;46.512;6.626;2023-05-29T08:43:54;96706.56;;;23.01;40.62
60228;BME280;46091;46.512;6.626;2023-05-29T08:45:59;96710.34;;;23.00;40.74
60228;BME280;46091;46.512;6.626;2023-05-29T08:48:03;96709.28;;;23.01;40.87
60228;BME280;46091;46.512;6.626;2023-05-29T08:50:09;96703.88;;;23.01;40.68
60228;BME280;46091;46.512;6.626;2023-05-29T08:52:16;96708.47;;;23.01;41.10
60228;BME280;46091;46.512;6.626;2023-05-29T08:54:20;96720.84;;;23.02;40.88
60228;BME280;46091;46.512;6.626;2023-05-29T08:56:23;96711.97;;;22.96;40.92
60228;BME280;46091;46.512;6.626;2023-05-29T08:58:35;96709.78;;;22.98;41.19
60228;BME280;46091;46.512;6.626;2023-05-29T09:00:39;96712.78;;;22.97;41.18
60228;BME280;46091;46.512;6.626;2023-05-29T09:02:42;96703.06;;;22.95;41.17
60228;BME280;46091;46.512;6.626;2023-05-29T09:04:46;96707.38;;;22.97;40.92
60228;BME280;46091;46.512;6.626;2023-05-29T09:06:50;96701.19;;;22.96;41.10
60228;BME280;46091;46.512;6.626;2023-05-29T09:08:58;96703.34;;;22.99;41.26
60228;BME280;46091;46.512;6.626;2023-05-29T09:11:01;96697.41;;;22.97;41.12
60228;BME280;46091;46.512;6.626;2023-05-29T09:13:04;96701.72;;;22.98;41.13
60228;BME280;46091;46.512;6.626;2023-05-29T09:15:16;96699.00;;;22.98;41.07
60228;BME280;46091;46.512;6.626;2023-05-29T09:17:20;96703.88;;;23.01;40.84
60228;BME280;46091;46.512;6.626;2023-05-29T09:19:23;96693.91;;;23.02;41.10
60228;BME280;46091;46.512;6.626;2023-05-29T09:21:28;96694.16;;;23.05;40.79
60228;BME280;46091;46.512;6.626;2023-05-29T09:23:34;96703.56;;;23.08;41.15
60228;BME280;46091;46.512;6.626;2023-05-29T09:25:41;96706.00;;;23.09;41.10
60228;BME280;46091;46.512;6.626;2023-05-29T09:27:45;96698.97;;;23.08;40.98
60228;BME280;46091;46.512;6.626;2023-05-29T09:29:48;96696.81;;;23.10;40.82
60228;BME280;46091;46.512;6.626;2023-05-29T09:31:51;96702.22;;;23.10;40.79
60228;BME280;46091;46.512;6.626;2023-05-29T09:33:54;96704.09;;;23.15;40.81
60228;BME280;46091;46.512;6.626;2023-05-29T09:35:59;96701.41;;;23.15;40.98
60228;BME280;46091;46.512;6.626;2023-05-29T09:38:02;96708.69;;;23.14;41.07
60228;BME280;46091;46.512;6.626;2023-05-29T09:40:07;96707.31;;;23.17;41.20
60228;BME280;46091;46.512;6.626;2023-05-29T09:42:15;96711.91;;;23.16;40.61
60228;BME280;46091;46.512;6.626;2023-05-29T09:44:18;96707.88;;;23.14;40.75
60228;BME280;46091;46.512;6.626;2023-05-29T09:46:22;96710.84;;;23.12;40.67
60228;BME280;46091;46.512;6.626;2023-05-29T09:48:25;96703.28;;;23.14;40.95
60228;BME280;46091;46.512;6.626;2023-05-29T09:50:29;96703.84;;;23.11;40.90
60228;BME280;46091;46.512;6.626;2023-05-29T09:52:32;96704.91;;;23.15;40.54
60228;BME280;46091;46.512;6.626;2023-05-29T09:54:38;96705.16;;;23.19;40.80
60228;BME280;46091;46.512;6.626;2023-05-29T09:56:42;96707.56;;;23.20;40.55
60228;BME280;46091;46.512;6.626;2023-05-29T09:58:46;96697.34;;;23.22;40.64
60228;BME280;46091;46.512;6.626;2023-05-29T10:00:52;96700.56;;;23.24;40.52
60228;BME280;46091;46.512;6.626;2023-05-29T10:02:55;96701.09;;;23.27;40.40
60228;BME280;46091;46.512;6.626;2023-05-29T10:04:59;96695.13;;;23.30;40.41
60228;BME280;46091;46.512;6.626;2023-05-29T10:07:05;96695.94;;;23.30;40.39
60228;BME280;46091;46.512;6.626;2023-05-29T10:09:12;96683.25;;;23.31;40.42
60228;BME280;46091;46.512;6.626;2023-05-29T10:11:19;96684.84;;;23.37;40.32
60228;BME280;46091;46.512;6.626;2023-05-29T10:13:27;96687.28;;;23.38;40.67
60228;BME280;46091;46.512;6.626;2023-05-29T10:15:32;96691.03;;;23.42;40.48
60228;BME280;46091;46.512;6.626;2023-05-29T10:17:38;96683.19;;;23.46;40.10
60228;BME280;46091;46.512;6.626;2023-05-29T10:19:43;96688.59;;;23.46;40.59
60228;BME280;46091;46.512;6.626;2023-05-29T10:21:50;96686.69;;;23.46;40.12
60228;BME280;46091;46.512;6.626;2023-05-29T10:23:57;96689.94;;;23.48;40.18
60228;BME280;46091;46.512;6.626;2023-05-29T10:26:12;96681.84;;;23.48;40.26
60228;BME280;46091;46.512;6.626;2023-05-29T10:28:16;96676.16;;;23.50;39.95
60228;BME280;46091;46.512;6.626;2023-05-29T10:30:27;96676.69;;;23.52;40.21
60228;BME280;46091;46.512;6.626;2023-05-29T10:32:44;96669.91;;;23.54;39.85
60228;BME280;46091;46.512;6.626;2023-05-29T10:35:02;96672.63;;;23.60;40.32
60228;BME280;46091;46.512;6.626;2023-05-29T10:37:18;96668.84;;;23.61;39.94
60228;BME280;46091;46.512;6.626;2023-05-29T10:39:24;96664.25;;;23.61;39.84
60228;BME280;46091;46.512;6.626;2023-05-29T10:41:33;96666.94;;;23.61;40.23
60228;BME280;46091;46.512;6.626;2023-05-29T10:43:41;96669.34;;;23.63;40.18
60228;BME280;46091;46.512;6.626;2023-05-29T10:45:49;96675.00;;;23.66;40.02
60228;BME280;46091;46.512;6.626;2023-05-29T10:50:38;96668.50;;;23.72;39.72
60228;BME280;46091;46.512;6.626;2023-05-29T10:52:46;96668.78;;;23.71;39.59
60228;BME280;46091;46.512;6.626;2023-05-29T10:54:51;96665.56;;;23.69;39.98
60228;BME280;46091;46.512;6.626;2023-05-29T10:56:56;96669.59;;;23.71;39.95
60228;BME280;46091;46.512;6.626;2023-05-29T10:59:00;96671.47;;;23.71;39.87
60228;BME280;46091;46.512;6.626;2023-05-29T11:01:04;96665.22;;;23.75;39.68